Time;durP1;ratioP1;P1;durP2;ratioP2;P2;SDS_P1;SDS_P2;PMS_P1;PMS_P2;Temp;Humidity;BMP_temperature;BMP_pressure;BME280_temperature;BME280_humidity;BME280_pressure;Samples;Min_cycle;Max_cycle;Signal;HPM_P1;HPM_P2
2021/11/28 00:02:22;;;;;;;5.18;3.88;;;17.40;55.70;;;;;;4966867;28;20034;-58
2021/11/28 00:04:48;;;;;;;6.63;3.80;;;17.40;55.70;;;;;;4946963;28;20377;-58
2021/11/28 00:10:04;;;;;;;5.20;3.40;;;17.50;55.70;;;;;;4965270;28;20030;-58
2021/11/28 00:15:01;;;;;;;6.72;3.80;;;17.40;55.50;;;;;;4944618;28;20389;-56
2021/11/28 00:17:27;;;;;;;5.20;3.70;;;17.50;55.60;;;;;;4949567;28;20583;-55
2021/11/28 00:19:53;;;;;;;4.72;3.42;;;17.50;55.60;;;;;;4953585;28;20134;-58
2021/11/28 00:22:18;;;;;;;5.35;3.85;;;17.50;55.50;;;;;;4949647;28;20030;-59
2021/11/28 00:24:44;;;;;;;5.60;3.47;;;17.50;55.40;;;;;;4942532;28;20031;-58
2021/11/28 00:27:11;;;;;;;7.25;4.20;;;17.50;55.40;;;;;;4965475;28;20492;-58
2021/11/28 00:29:37;;;;;;;7.07;4.15;;;17.50;55.40;;;;;;4927515;28;20027;-58
2021/11/28 00:32:03;;;;;;;4.78;3.63;;;17.50;55.30;;;;;;4965033;28;20117;-58
2021/11/28 00:34:28;;;;;;;4.05;3.13;;;17.50;55.30;;;;;;4947321;28;20712;-58
2021/11/28 00:36:54;;;;;;;5.05;3.53;;;17.50;55.80;;;;;;4965956;28;20052;-58
2021/11/28 00:39:19;;;;;;;4.00;3.08;;;17.50;55.20;;;;;;4964837;28;20685;-59
2021/11/28 00:41:45;;;;;;;4.32;3.03;;;17.60;55.20;;;;;;4965201;28;20027;-60
2021/11/28 00:44:11;;;;;;;5.15;3.05;;;17.60;55.20;;;;;;4948762;28;20035;-59
2021/11/28 00:46:37;;;;;;;5.70;4.05;;;17.60;55.20;;;;;;4964237;28;20034;-58
2021/11/28 00:49:04;;;;;;;4.72;3.65;;;17.60;55.10;;;;;;4946232;28;20494;-57
2021/11/28 00:51:37;;;;;;;4.53;3.25;;;17.60;55.10;;;;;;4965517;28;20040;-58
2021/11/28 00:54:03;;;;;;;4.28;3.60;;;17.60;55.00;;;;;;4962003;28;20125;-57
2021/11/28 00:56:29;;;;;;;4.50;2.97;;;17.60;55.10;;;;;;4948335;28;20552;-57
2021/11/28 00:58:54;;;;;;;3.45;3.00;;;17.60;55.00;;;;;;4960381;28;20145;-58
2021/11/28 01:01:20;;;;;;;5.22;2.97;;;17.70;55.00;;;;;;4948030;28;20030;-57
2021/11/28 01:03:45;;;;;;;3.40;2.70;;;17.70;54.90;;;;;;4962478;28;20027;-56
2021/11/28 01:06:11;;;;;;;4.05;2.60;;;17.70;54.90;;;;;;4947845;28;20042;-57
2021/11/28 01:08:38;;;;;;;3.90;3.03;;;17.70;54.90;;;;;;4961592;28;20034;-57
2021/11/28 01:11:04;;;;;;;3.63;2.63;;;17.70;54.90;;;;;;4945556;28;20045;-57
2021/11/28 01:13:30;;;;;;;3.10;2.50;;;17.70;54.80;;;;;;4926628;28;20030;-57
2021/11/28 01:15:55;;;;;;;2.90;2.53;;;17.70;54.80;;;;;;4947533;28;20038;-57
2021/11/28 01:18:21;;;;;;;2.88;2.28;;;17.70;55.40;;;;;;4944967;28;20038;-56
2021/11/28 01:20:46;;;;;;;3.35;2.58;;;17.80;54.70;;;;;;4963509;28;20476;-56
2021/11/28 01:23:12;;;;;;;3.08;2.38;;;17.80;54.60;;;;;;4959246;28;20113;-57
2021/11/28 01:25:37;;;;;;;4.50;2.97;;;17.80;54.50;;;;;;4964582;28;20037;-59
2021/11/28 01:28:03;;;;;;;3.33;2.30;;;17.80;55.00;;;;;;4960001;28;20031;-58
2021/11/28 01:30:30;;;;;;;2.58;2.00;;;17.80;54.30;;;;;;4964162;28;20038;-58
2021/11/28 01:32:55;;;;;;;3.35;2.45;;;17.90;54.20;;;;;;4958597;28;20039;-59
2021/11/28 01:35:21;;;;;;;2.47;2.03;;;17.90;54.20;;;;;;4964045;28;20045;-59
2021/11/28 01:37:46;;;;;;;2.45;1.90;;;17.90;54.20;;;;;;4943082;28;20023;-57
2021/11/28 01:40:14;;;;;;;3.10;2.28;;;17.90;54.10;;;;;;4963669;28;20030;-58
2021/11/28 01:42:45;;;;;;;3.35;2.10;;;17.90;54.00;;;;;;4945806;28;20042;-58
2021/11/28 01:45:17;;;;;;;6.55;2.63;;;17.90;53.90;;;;;;4947377;28;20126;-57
2021/11/28 01:47:43;;;;;;;2.97;2.40;;;17.90;53.90;;;;;;4964661;28;20684;-58
2021/11/28 01:50:08;;;;;;;2.60;2.03;;;17.90;53.90;;;;;;4959041;28;20083;-56
2021/11/28 01:52:37;;;;;;;2.35;1.55;;;17.90;53.90;;;;;;4964112;28;20045;-58
2021/11/28 01:55:06;;;;;;;2.03;1.83;;;17.90;53.80;;;;;;4941252;28;20037;-58
2021/11/28 01:57:32;;;;;;;3.08;2.00;;;17.90;53.80;;;;;;4947228;28;20418;-58
2021/11/28 01:59:58;;;;;;;3.03;2.13;;;17.90;53.80;;;;;;4959563;28;20070;-57
2021/11/28 02:02:23;;;;;;;2.10;1.85;;;17.90;53.80;;;;;;4974147;28;20027;-59
2021/11/28 02:04:49;;;;;;;2.85;2.00;;;17.90;53.70;;;;;;4995103;28;20122;-57
2021/11/28 02:07:14;;;;;;;2.22;2.03;;;17.90;53.60;;;;;;4978211;28;20407;-56
2021/11/28 02:09:40;;;;;;;1.98;1.70;;;17.90;53.50;;;;;;4974354;28;20036;-58
2021/11/28 02:12:06;;;;;;;2.38;1.95;;;17.90;53.60;;;;;;4990541;28;20036;-57
2021/11/28 02:14:32;;;;;;;2.28;1.95;;;17.80;53.50;;;;;;4977992;28;20030;-58
2021/11/28 02:16:57;;;;;;;3.35;1.60;;;17.80;53.50;;;;;;4977790;28;20039;-57
2021/11/28 02:19:23;;;;;;;2.42;1.75;;;17.80;53.60;;;;;;4991068;28;20026;-58
2021/11/28 02:21:48;;;;;;;1.88;1.55;;;17.80;53.70;;;;;;4990030;23;20054;-60
2021/11/28 02:24:14;;;;;;;2.40;1.58;;;17.70;53.70;;;;;;5003303;28;20563;-61
2021/11/28 02:26:39;;;;;;;2.25;1.58;;;17.70;53.70;;;;;;5005527;28;20516;-61
2021/11/28 02:29:05;;;;;;;1.58;1.30;;;17.70;53.90;;;;;;5006824;28;20033;-62
2021/11/28 02:31:30;;;;;;;3.38;1.75;;;17.70;53.90;;;;;;5005473;28;20206;-61
2021/11/28 02:33:56;;;;;;;2.45;1.60;;;17.60;53.90;;;;;;5007574;28;20045;-61
2021/11/28 02:36:21;;;;;;;1.85;1.42;;;17.60;53.90;;;;;;5006642;28;20026;-62
2021/11/28 02:38:47;;;;;;;1.98;1.73;;;17.60;53.90;;;;;;5006500;28;20033;-61
2021/11/28 02:41:12;;;;;;;2.13;1.50;;;17.60;54.10;;;;;;5006742;28;20029;-61
2021/11/28 02:43:38;;;;;;;1.98;1.60;;;17.50;54.10;;;;;;5006362;28;20582;-61
2021/11/28 02:46:05;;;;;;;2.00;1.30;;;17.50;54.10;;;;;;5005923;28;20029;-61
2021/11/28 02:48:30;;;;;;;3.25;1.60;;;17.50;54.00;;;;;;5006374;28;20026;-62
2021/11/28 02:50:59;;;;;;;2.35;1.40;;;17.60;54.00;;;;;;5004287;28;20044;-61
2021/11/28 02:53:25;;;;;;;1.90;1.20;;;17.50;53.90;;;;;;5006199;28;20040;-61
2021/11/28 02:55:55;;;;;;;1.40;1.20;;;17.50;54.10;;;;;;5005521;28;20073;-61
2021/11/28 02:58:21;;;;;;;3.15;1.40;;;17.50;54.20;;;;;;5006383;28;20026;-62
2021/11/28 03:00:56;;;;;;;1.73;1.50;;;17.60;54.30;;;;;;5004054;28;20022;-61
2021/11/28 03:03:21;;;;;;;1.45;1.35;;;17.60;54.30;;;;;;5003116;28;20033;-61
2021/11/28 03:05:47;;;;;;;1.98;1.25;;;17.60;54.20;;;;;;5005070;28;20034;-62
2021/11/28 03:08:16;;;;;;;1.60;1.50;;;17.70;54.20;;;;;;5005693;28;20030;-61
2021/11/28 03:10:43;;;;;;;1.55;1.20;;;17.70;54.10;;;;;;5006998;28;20104;-61
2021/11/28 03:13:20;;;;;;;1.30;1.10;;;17.70;54.10;;;;;;5004941;28;20033;-61
2021/11/28 03:15:48;;;;;;;1.90;1.55;;;17.70;54.10;;;;;;5005696;28;20042;-61
2021/11/28 03:18:15;;;;;;;2.05;1.33;;;17.70;54.10;;;;;;5004677;28;20033;-61
2021/11/28 03:20:40;;;;;;;2.00;1.40;;;17.70;54.10;;;;;;5005481;28;20022;-62
2021/11/28 03:23:06;;;;;;;1.70;1.20;;;17.70;54.00;;;;;;5005704;28;20042;-62
2021/11/28 03:25:32;;;;;;;2.75;1.00;;;17.70;53.90;;;;;;5005724;28;20040;-62
2021/11/28 03:27:58;;;;;;;2.95;1.50;;;17.70;53.90;;;;;;5005582;28;20041;-60
2021/11/28 03:30:23;;;;;;;1.90;1.15;;;17.70;53.70;;;;;;5005575;28;20056;-61
2021/11/28 03:32:49;;;;;;;1.27;1.15;;;17.70;53.60;;;;;;5004056;28;20029;-61
2021/11/28 03:35:15;;;;;;;1.48;1.02;;;17.80;53.60;;;;;;5005868;28;20018;-61
2021/11/28 03:37:40;;;;;;;1.38;1.15;;;17.70;53.50;;;;;;5005550;28;20026;-60
2021/11/28 03:40:07;;;;;;;1.55;1.10;;;17.70;53.60;;;;;;5005456;28;20040;-61
2021/11/28 03:42:32;;;;;;;2.08;1.00;;;17.70;53.60;;;;;;5005598;28;20472;-62
2021/11/28 03:44:58;;;;;;;1.17;0.98;;;17.70;53.50;;;;;;5005653;28;20060;-60
2021/11/28 03:47:23;;;;;;;2.15;1.02;;;17.70;53.40;;;;;;5006240;28;20026;-59
2021/11/28 03:49:49;;;;;;;2.47;1.02;;;17.70;53.50;;;;;;5000262;28;20018;-58
2021/11/28 03:52:14;;;;;;;2.85;0.95;;;17.80;53.40;;;;;;5005024;28;20041;-60
2021/11/28 03:54:40;;;;;;;1.48;1.00;;;17.80;53.40;;;;;;5005481;28;20377;-60
2021/11/28 03:57:06;;;;;;;1.45;1.05;;;17.80;53.40;;;;;;5005214;28;20034;-61
2021/11/28 03:59:31;;;;;;;2.00;1.13;;;17.70;53.30;;;;;;5005239;28;20026;-61
2021/11/28 04:01:57;;;;;;;1.80;1.10;;;17.70;54.00;;;;;;5005073;28;20034;-61
2021/11/28 04:04:22;;;;;;;0.98;0.88;;;17.70;53.30;;;;;;5005673;28;20033;-56
2021/11/28 04:06:48;;;;;;;1.45;0.90;;;17.70;53.30;;;;;;5005169;28;20022;-59
2021/11/28 04:09:13;;;;;;;1.55;1.30;;;17.70;53.20;;;;;;5005525;28;20062;-60
2021/11/28 04:11:39;;;;;;;1.10;0.68;;;17.70;53.30;;;;;;5005157;28;20038;-52
2021/11/28 04:14:04;;;;;;;1.02;0.82;;;17.70;53.30;;;;;;5005014;28;20489;-57
2021/11/28 04:16:31;;;;;;;1.08;0.75;;;17.70;53.30;;;;;;5007416;28;20037;-61
2021/11/28 04:18:56;;;;;;;1.70;1.30;;;17.70;53.30;;;;;;5008930;28;20539;-61
2021/11/28 04:21:22;;;;;;;1.98;1.23;;;17.70;53.30;;;;;;5008423;28;20030;-52
2021/11/28 04:23:48;;;;;;;1.30;1.00;;;17.70;53.40;;;;;;5008453;28;20034;-57
2021/11/28 04:26:14;;;;;;;1.77;0.75;;;17.70;53.30;;;;;;5008952;28;20068;-60
2021/11/28 04:28:40;;;;;;;1.10;0.88;;;17.70;53.30;;;;;;5008157;28;20111;-59
2021/11/28 04:31:05;;;;;;;1.13;0.80;;;17.70;53.30;;;;;;5008634;28;20591;-54
2021/11/28 04:33:31;;;;;;;1.25;0.70;;;17.70;53.30;;;;;;5008738;28;20041;-57
2021/11/28 04:35:56;;;;;;;1.52;1.17;;;17.70;53.30;;;;;;5008514;28;20072;-56
2021/11/28 04:38:21;;;;;;;1.13;1.00;;;17.70;53.30;;;;;;5009155;28;20435;-58
2021/11/28 04:40:47;;;;;;;1.83;1.00;;;17.70;53.40;;;;;;5008578;28;20026;-62
2021/11/28 04:43:12;;;;;;;1.50;1.20;;;17.60;53.50;;;;;;5008657;28;20033;-54
2021/11/28 04:45:38;;;;;;;1.88;1.10;;;17.70;53.60;;;;;;5007686;28;20543;-55
2021/11/28 04:48:04;;;;;;;1.88;0.80;;;17.70;53.60;;;;;;5007411;28;20026;-56
2021/11/28 04:50:29;;;;;;;0.88;0.70;;;17.70;53.60;;;;;;5008051;28;20426;-61
2021/11/28 04:52:55;;;;;;;1.00;0.80;;;17.60;53.60;;;;;;5008407;28;20026;-62
2021/11/28 04:55:20;;;;;;;1.55;0.93;;;17.70;53.60;;;;;;5009157;28;20639;-61
2021/11/28 04:57:46;;;;;;;1.88;0.82;;;17.70;53.60;;;;;;5007252;28;20032;-61
2021/11/28 05:00:17;;;;;;;2.15;1.10;;;17.70;53.60;;;;;;5006661;28;20142;-61
2021/11/28 05:02:42;;;;;;;1.55;0.90;;;17.70;53.60;;;;;;5003489;28;20030;-61
2021/11/28 05:05:08;;;;;;;1.25;0.70;;;17.70;53.70;;;;;;5007674;28;20506;-61
2021/11/28 05:07:34;;;;;;;1.70;0.90;;;17.70;53.70;;;;;;5008259;28;20091;-62
2021/11/28 05:09:59;;;;;;;1.02;0.93;;;17.70;53.70;;;;;;5008163;28;20061;-61
2021/11/28 05:12:25;;;;;;;1.35;0.80;;;17.70;53.70;;;;;;5007491;28;20219;-62
2021/11/28 05:14:53;;;;;;;1.55;0.90;;;17.70;53.60;;;;;;5007705;28;20124;-62
2021/11/28 05:17:19;;;;;;;0.73;0.60;;;17.70;53.70;;;;;;5007381;28;20025;-62
2021/11/28 05:19:44;;;;;;;0.73;0.70;;;17.70;53.70;;;;;;5006135;28;20026;-62
2021/11/28 05:22:09;;;;;;;1.60;1.00;;;17.70;53.60;;;;;;4988732;28;20045;-63
2021/11/28 05:24:35;;;;;;;2.20;0.80;;;17.70;53.70;;;;;;5006075;28;20033;-62
2021/11/28 05:27:00;;;;;;;2.78;1.00;;;17.70;53.70;;;;;;5005501;28;20053;-63
2021/11/28 05:29:26;;;;;;;3.45;0.90;;;17.70;53.70;;;;;;5005109;28;20038;-62
2021/11/28 05:31:52;;;;;;;3.15;0.80;;;17.80;53.70;;;;;;5007647;28;20477;-62
2021/11/28 05:34:17;;;;;;;1.13;0.80;;;17.80;53.70;;;;;;4989038;28;20022;-62
2021/11/28 05:36:43;;;;;;;3.00;0.75;;;17.80;54.30;;;;;;5006271;28;20034;-59
2021/11/28 05:39:08;;;;;;;6.25;0.88;;;17.80;53.90;;;;;;5005830;28;20076;-63
2021/11/28 05:41:34;;;;;;;3.55;1.00;;;17.80;53.90;;;;;;5005006;28;20018;-61
2021/11/28 05:43:59;;;;;;;3.80;0.90;;;17.80;54.10;;;;;;4989803;28;20280;-61
2021/11/28 05:46:25;;;;;;;2.88;0.65;;;17.90;54.10;;;;;;5006088;28;20116;-61
2021/11/28 05:48:50;;;;;;;0.85;0.80;;;17.80;54.10;;;;;;5008817;28;20034;-62
2021/11/28 05:51:16;;;;;;;2.60;0.85;;;17.80;54.00;;;;;;5007512;28;20033;-62
2021/11/28 05:53:41;;;;;;;0.88;0.70;;;17.80;54.00;;;;;;5007240;28;20022;-62
2021/11/28 05:56:07;;;;;;;1.10;0.80;;;17.80;54.00;;;;;;5007475;28;20026;-62
2021/11/28 05:58:32;;;;;;;2.00;0.80;;;17.80;54.00;;;;;;5006976;28;20052;-61
2021/11/28 06:00:58;;;;;;;1.13;0.90;;;17.80;53.90;;;;;;5008091;28;20029;-62
2021/11/28 06:03:23;;;;;;;2.22;0.82;;;17.80;54.00;;;;;;5007466;28;20380;-62
2021/11/28 06:05:49;;;;;;;1.70;0.75;;;17.80;53.90;;;;;;5006945;28;20513;-62
2021/11/28 06:08:14;;;;;;;1.67;0.75;;;17.80;53.80;;;;;;5007156;28;20021;-62
2021/11/28 06:10:40;;;;;;;2.92;0.82;;;17.90;53.80;;;;;;5006784;28;20034;-62
2021/11/28 06:13:05;;;;;;;1.15;0.60;;;17.80;53.60;;;;;;5006508;28;20847;-62
2021/11/28 06:15:31;;;;;;;2.35;0.88;;;17.80;53.70;;;;;;5006745;28;20034;-62
2021/11/28 06:17:57;;;;;;;0.82;0.50;;;17.80;53.60;;;;;;5007101;28;20018;-62
2021/11/28 06:20:22;;;;;;;1.05;0.80;;;17.80;53.50;;;;;;5006337;28;20026;-62
2021/11/28 06:22:48;;;;;;;1.80;0.88;;;17.80;53.40;;;;;;5004882;28;20044;-61
2021/11/28 06:25:13;;;;;;;1.20;0.65;;;17.80;53.30;;;;;;5006599;28;20019;-63
2021/11/28 06:27:39;;;;;;;2.00;1.08;;;17.80;53.20;;;;;;5006557;28;20026;-62
2021/11/28 06:30:05;;;;;;;1.88;0.80;;;17.80;53.20;;;;;;5007096;28;20483;-62
2021/11/28 06:32:31;;;;;;;1.02;0.70;;;17.80;53.20;;;;;;5006587;28;20026;-62
2021/11/28 06:34:57;;;;;;;4.18;0.52;;;17.80;53.10;;;;;;5006237;28;20021;-61
2021/11/28 06:37:22;;;;;;;0.95;0.80;;;17.80;53.00;;;;;;5006493;28;20502;-62
2021/11/28 06:39:48;;;;;;;1.08;0.70;;;17.80;53.00;;;;;;5005846;28;20034;-61
2021/11/28 06:42:13;;;;;;;1.70;0.80;;;17.80;53.00;;;;;;5006599;28;20477;-62
2021/11/28 06:44:39;;;;;;;0.80;0.57;;;17.80;52.90;;;;;;5006494;28;20029;-62
2021/11/28 06:47:04;;;;;;;1.90;0.70;;;17.80;52.80;;;;;;5005508;28;20022;-62
2021/11/28 06:49:30;;;;;;;0.98;0.63;;;17.80;52.80;;;;;;5005110;28;20098;-63
2021/11/28 06:51:56;;;;;;;1.98;0.73;;;17.80;52.70;;;;;;5005821;28;20028;-62
2021/11/28 06:54:22;;;;;;;1.73;0.80;;;17.80;52.80;;;;;;5005999;28;20404;-61
2021/11/28 06:56:48;;;;;;;1.58;0.80;;;17.80;52.70;;;;;;5005811;28;20018;-63
2021/11/28 06:59:13;;;;;;;1.05;0.77;;;17.80;52.70;;;;;;5005836;28;20034;-62
2021/11/28 07:01:39;;;;;;;1.90;0.60;;;17.80;52.70;;;;;;5005914;28;20018;-63
2021/11/28 07:04:04;;;;;;;1.88;0.73;;;17.80;52.60;;;;;;5006458;28;20290;-62
2021/11/28 07:06:30;;;;;;;0.98;0.85;;;17.80;52.40;;;;;;5005474;28;20018;-61
2021/11/28 07:08:55;;;;;;;1.35;0.90;;;17.80;52.30;;;;;;5005752;28;20300;-61
2021/11/28 07:11:21;;;;;;;2.05;0.90;;;17.80;52.20;;;;;;5005631;28;20041;-61
2021/11/28 07:13:49;;;;;;;3.63;1.00;;;17.80;52.20;;;;;;5005812;28;20641;-62
2021/11/28 07:16:14;;;;;;;7.82;1.77;;;17.80;52.40;;;;;;5006154;28;20025;-63
2021/11/28 07:18:43;;;;;;;6.45;0.95;;;17.80;52.60;;;;;;5000943;28;20014;-62
2021/11/28 07:21:09;;;;;;;2.88;1.10;;;17.80;52.60;;;;;;5006479;28;20014;-63
2021/11/28 07:23:34;;;;;;;3.63;1.17;;;17.80;52.60;;;;;;5005348;28;20038;-62
2021/11/28 07:26:00;;;;;;;3.85;1.00;;;17.80;52.80;;;;;;5005967;28;20049;-62
2021/11/28 07:28:25;;;;;;;6.47;1.23;;;17.80;52.80;;;;;;5006484;28;20030;-63
2021/11/28 07:30:51;;;;;;;4.13;2.22;;;17.80;52.80;;;;;;5005494;28;20070;-62
2021/11/28 07:33:17;;;;;;;4.72;2.10;;;17.80;53.20;;;;;;5005830;28;20026;-62
2021/11/28 07:35:42;;;;;;;6.88;2.08;;;17.80;53.30;;;;;;5005789;28;20045;-63
2021/11/28 07:38:08;;;;;;;3.58;1.58;;;17.80;53.20;;;;;;5005399;28;20033;-63
2021/11/28 07:40:33;;;;;;;6.38;1.80;;;17.80;53.20;;;;;;5005732;28;20021;-62
2021/11/28 07:42:59;;;;;;;5.65;1.70;;;17.80;53.20;;;;;;5005564;28;20497;-63
2021/11/28 07:45:24;;;;;;;3.22;1.70;;;17.80;53.80;;;;;;5005852;28;20072;-63
2021/11/28 07:47:50;;;;;;;4.35;1.58;;;17.70;53.20;;;;;;5005720;28;20057;-63
2021/11/28 07:50:16;;;;;;;4.00;1.40;;;17.70;53.30;;;;;;5005645;28;20017;-63
2021/11/28 07:52:42;;;;;;;3.42;1.73;;;17.70;53.40;;;;;;5008635;28;20625;-63
2021/11/28 07:55:07;;;;;;;3.03;1.50;;;17.70;53.50;;;;;;5009716;28;20030;-62
2021/11/28 07:57:33;;;;;;;5.82;1.60;;;17.70;53.50;;;;;;5009464;28;20048;-63
2021/11/28 07:59:58;;;;;;;4.50;1.83;;;17.70;53.50;;;;;;5009244;28;20026;-64
2021/11/28 08:02:24;;;;;;;3.60;1.30;;;17.60;53.40;;;;;;5009340;28;20572;-63
2021/11/28 08:04:50;;;;;;;3.72;1.65;;;17.60;53.30;;;;;;5009403;28;20508;-63
2021/11/28 08:07:15;;;;;;;23.08;11.52;;;17.70;53.50;;;;;;5008171;28;20220;-63
2021/11/28 08:09:40;;;;;;;44.13;18.55;;;17.70;53.80;;;;;;5009366;28;20022;-62
2021/11/28 08:12:06;;;;;;;30.90;16.42;;;17.60;54.20;;;;;;5009174;28;20034;-63
2021/11/28 08:14:32;;;;;;;30.60;13.88;;;17.60;54.30;;;;;;5008993;28;20033;-61
2021/11/28 08:16:57;;;;;;;26.20;12.05;;;17.60;54.20;;;;;;5007214;28;20503;-62
2021/11/28 08:19:23;;;;;;;23.05;11.55;;;17.60;54.20;;;;;;5008483;28;20489;-62
2021/11/28 08:21:48;;;;;;;24.67;11.43;;;17.60;54.30;;;;;;5007432;28;20029;-63
2021/11/28 08:24:14;;;;;;;25.40;11.02;;;17.60;54.30;;;;;;5007155;28;20072;-62
2021/11/28 08:26:39;;;;;;;19.10;9.00;;;17.50;54.20;;;;;;5008502;28;20376;-62
2021/11/28 08:29:05;;;;;;;20.40;9.05;;;17.50;54.10;;;;;;5007478;28;20461;-63
2021/11/28 08:31:31;;;;;;;16.08;9.02;;;17.50;54.10;;;;;;5007126;28;20030;-62
2021/11/28 08:33:57;;;;;;;13.30;7.78;;;17.50;54.10;;;;;;4991199;28;20041;-62
2021/11/28 08:36:22;;;;;;;17.55;8.60;;;17.50;54.10;;;;;;5006766;28;20072;-62
2021/11/28 08:38:48;;;;;;;14.00;8.38;;;17.50;54.10;;;;;;5007155;28;20022;-63
2021/11/28 08:41:14;;;;;;;12.98;7.60;;;17.50;54.00;;;;;;4990753;28;20026;-62
2021/11/28 08:43:40;;;;;;;14.13;7.50;;;17.40;53.80;;;;;;5006973;28;20026;-62
2021/11/28 08:46:06;;;;;;;15.68;7.22;;;17.40;53.80;;;;;;5007359;28;20022;-63
2021/11/28 08:48:32;;;;;;;18.60;6.80;;;17.40;53.90;;;;;;5007470;28;20404;-63
2021/11/28 08:50:58;;;;;;;14.63;6.25;;;17.40;54.00;;;;;;5008195;28;20030;-63
2021/11/28 08:53:23;;;;;;;13.00;7.40;;;17.40;54.00;;;;;;5007141;28;20029;-62
2021/11/28 08:55:49;;;;;;;12.35;6.70;;;17.40;53.90;;;;;;5005856;28;20037;-61
2021/11/28 08:58:16;;;;;;;11.70;5.97;;;17.40;53.80;;;;;;5005361;28;20161;-61
2021/11/28 09:00:41;;;;;;;17.85;9.23;;;17.40;53.80;;;;;;5004625;28;20049;-60
2021/11/28 09:03:07;;;;;;;27.17;12.23;;;17.40;54.00;;;;;;5004893;28;20095;-61
2021/11/28 09:05:32;;;;;;;25.75;12.82;;;17.50;54.60;;;;;;5005952;28;20057;-61
2021/11/28 09:08:00;;;;;;;29.70;12.00;;;17.50;54.70;;;;;;5006372;28;20869;-57
2021/11/28 09:10:26;;;;;;;25.33;11.68;;;17.60;54.50;;;;;;5006210;28;20117;-58
2021/11/28 09:12:52;;;;;;;29.17;11.80;;;17.70;54.30;;;;;;5006183;28;20033;-62
2021/11/28 09:15:17;;;;;;;25.83;10.80;;;17.70;54.10;;;;;;5007854;28;20056;-61
2021/11/28 09:17:50;;;;;;;20.65;10.50;;;17.70;54.10;;;;;;5007303;28;20084;-61
2021/11/28 09:20:19;;;;;;;22.88;9.55;;;17.80;54.10;;;;;;5007357;28;20026;-61
2021/11/28 09:25:16;;;;;;;17.63;8.73;;;17.90;54.00;;;;;;5007784;28;20495;-63
2021/11/28 09:27:43;;;;;;;18.60;8.73;;;17.90;54.00;;;;;;5008473;28;20029;-63
2021/11/28 09:30:09;;;;;;;16.88;8.10;;;17.90;54.00;;;;;;4991345;28;20061;-62
2021/11/28 09:32:34;;;;;;;17.00;8.18;;;17.90;54.00;;;;;;5004809;28;20054;-62
2021/11/28 09:35:00;;;;;;;13.98;7.45;;;17.90;54.00;;;;;;5001042;28;20033;-61
2021/11/28 09:37:25;;;;;;;17.77;7.57;;;17.90;54.00;;;;;;5024291;28;20022;-63
2021/11/28 09:39:51;;;;;;;19.35;7.63;;;17.90;54.00;;;;;;5005515;28;20292;-62
2021/11/28 09:42:20;;;;;;;15.50;8.10;;;18.00;54.10;;;;;;5005447;28;20631;-59
2021/11/28 09:44:45;;;;;;;12.63;7.00;;;17.90;54.10;;;;;;4982768;28;20510;-56
2021/11/28 09:47:11;;;;;;;11.65;7.15;;;17.90;54.10;;;;;;5006817;28;20018;-61
2021/11/28 09:49:38;;;;;;;15.05;7.43;;;17.90;54.10;;;;;;5012165;28;20056;-57
2021/11/28 09:52:06;;;;;;;13.55;6.43;;;17.90;54.10;;;;;;5023734;28;20033;-60
2021/11/28 09:54:33;;;;;;;10.40;5.88;;;17.90;54.20;;;;;;5024135;28;20082;-57
2021/11/28 09:56:58;;;;;;;14.82;6.47;;;17.90;54.10;;;;;;5024222;28;20034;-62
2021/11/28 09:59:24;;;;;;;13.63;6.57;;;17.90;54.20;;;;;;5006262;28;20080;-55
2021/11/28 10:01:50;;;;;;;15.68;6.13;;;17.90;54.20;;;;;;5005695;28;20025;-55
2021/11/28 10:04:15;;;;;;;21.65;9.20;;;17.90;54.10;;;;;;5023367;28;20026;-63
2021/11/28 10:06:41;;;;;;;33.22;9.80;;;17.90;54.40;;;;;;5006514;28;20116;-62
2021/11/28 10:09:07;;;;;;;31.95;10.43;;;17.90;54.90;;;;;;5001895;28;20025;-60
2021/11/28 10:11:42;;;;;;;30.15;10.20;;;17.90;55.20;;;;;;5021797;28;20553;-58
2021/11/28 10:14:09;;;;;;;33.50;10.25;;;17.90;55.20;;;;;;5014858;28;20033;-61
2021/11/28 10:16:35;;;;;;;30.80;10.13;;;17.90;55.40;;;;;;5023309;28;20116;-59
2021/11/28 10:19:00;;;;;;;31.42;10.85;;;17.90;55.50;;;;;;5000467;28;20117;-62
2021/11/28 10:21:27;;;;;;;30.73;11.25;;;17.90;56.10;;;;;;5015963;28;20437;-61
2021/11/28 10:24:22;;;;;;;31.90;10.40;;;17.80;55.50;;;;;;5004108;28;20037;-63
2021/11/28 10:27:09;;;;;;;29.02;7.65;;;17.80;56.10;;;;;;4995811;28;20542;-63
2021/11/28 10:29:40;;;;;;;19.55;7.35;;;17.90;57.10;;;;;;5020696;28;20663;-65
2021/11/28 10:32:06;;;;;;;25.33;8.30;;;17.90;56.00;;;;;;5005921;28;20033;-61
2021/11/28 10:34:37;;;;;;;22.20;7.82;;;17.90;55.80;;;;;;5017860;28;20056;-63
2021/11/28 10:37:03;;;;;;;32.97;9.00;;;17.90;55.90;;;;;;5002293;28;20431;-64
2021/11/28 10:39:28;;;;;;;26.77;9.30;;;17.90;57.40;;;;;;5022187;28;20033;-68
2021/11/28 10:41:55;;;;;;;23.02;8.90;;;18.00;58.90;;;;;;5019025;28;20044;-69
2021/11/28 10:44:23;;;;;;;24.77;9.43;;;18.00;59.60;;;;;;5024047;28;20101;-63
2021/11/28 10:46:48;;;;;;;24.25;9.90;;;18.10;59.70;;;;;;5023866;28;20037;-69
2021/11/28 10:49:18;;;;;;;24.08;12.38;;;18.00;59.30;;;;;;5005717;28;20030;-68
2021/11/28 10:51:45;;;;;;;30.77;15.35;;;17.90;58.90;;;;;;5019136;28;20081;-70
2021/11/28 10:54:23;;;;;;;35.70;19.75;;;17.80;58.50;;;;;;5023259;28;20060;-71
2021/11/28 10:57:00;;;;;;;32.10;19.55;;;17.80;58.20;;;;;;5023791;28;20025;-72
2021/11/28 10:59:26;;;;;;;30.50;17.75;;;17.70;58.10;;;;;;4991915;28;20399;-72
2021/11/28 11:01:51;;;;;;;28.60;15.82;;;17.70;58.00;;;;;;5023369;28;20025;-64
2021/11/28 11:04:18;;;;;;;29.42;14.38;;;17.70;57.90;;;;;;5005846;28;20033;-66
2021/11/28 11:06:44;;;;;;;20.98;12.48;;;17.60;57.70;;;;;;5022375;28;20032;-66
2021/11/28 11:09:21;;;;;;;22.17;12.63;;;17.60;57.70;;;;;;5023266;28;20029;-68
2021/11/28 11:11:46;;;;;;;22.02;12.30;;;17.60;57.50;;;;;;5015549;28;20041;-65
2021/11/28 11:14:12;;;;;;;18.77;12.52;;;17.60;57.50;;;;;;5023188;28;20047;-67
2021/11/28 11:16:39;;;;;;;19.75;12.45;;;17.60;57.40;;;;;;5023257;28;20039;-66
2021/11/28 11:19:28;;;;;;;18.52;11.15;;;17.60;57.30;;;;;;5015976;28;20034;-68
2021/11/28 11:22:07;;;;;;;15.77;10.02;;;17.60;57.20;;;;;;5003643;28;20033;-68
2021/11/28 11:24:35;;;;;;;15.48;9.73;;;17.60;57.10;;;;;;5023538;28;20030;-71
2021/11/28 11:27:14;;;;;;;16.83;9.32;;;17.60;57.20;;;;;;5001182;28;20036;-70
2021/11/28 11:29:41;;;;;;;14.75;8.80;;;17.60;57.30;;;;;;5005126;28;20026;-69
2021/11/28 11:32:12;;;;;;;16.45;7.70;;;17.60;57.40;;;;;;5028080;28;20033;-72
2021/11/28 11:34:38;;;;;;;12.27;8.05;;;17.60;57.30;;;;;;5030148;28;20580;-69
2021/11/28 11:37:06;;;;;;;14.85;8.55;;;17.60;57.30;;;;;;5010958;28;20108;-69
2021/11/28 11:39:32;;;;;;;13.05;8.13;;;17.60;57.30;;;;;;5029653;28;20030;-65
2021/11/28 11:41:58;;;;;;;12.88;9.35;;;17.70;57.20;;;;;;5008064;28;20492;-70
2021/11/28 11:44:27;;;;;;;15.02;8.45;;;17.60;58.00;;;;;;5029661;28;20044;-69
2021/11/28 11:46:53;;;;;;;14.60;9.32;;;17.70;57.20;;;;;;5012847;28;20784;-69
2021/11/28 11:49:19;;;;;;;13.98;8.05;;;17.70;57.20;;;;;;5012042;28;20048;-68
2021/11/28 11:51:46;;;;;;;19.13;14.48;;;17.70;57.40;;;;;;5027249;28;20643;-66
2021/11/28 11:54:50;;;;;;;22.63;18.20;;;17.70;57.70;;;;;;5011067;28;20037;-66
2021/11/28 11:57:26;;;;;;;22.85;18.35;;;17.70;58.40;;;;;;4912753;29;20574;-65
2021/11/28 12:00:00;;;;;;;25.38;18.55;;;17.70;58.90;;;;;;4996876;28;20484;-67
2021/11/28 12:02:35;;;;;;;19.95;16.38;;;17.70;59.20;;;;;;5028628;28;20033;-68
2021/11/28 12:05:01;;;;;;;18.95;15.57;;;17.70;59.70;;;;;;5028051;28;20045;-67
2021/11/28 12:07:46;;;;;;;26.65;15.13;;;17.80;59.90;;;;;;5029613;28;20411;-69
2021/11/28 12:10:43;;;;;;;24.55;16.10;;;17.80;59.10;;;;;;5028809;28;20662;-65
2021/11/28 12:13:24;;;;;;;21.40;14.63;;;17.80;59.90;;;;;;5028447;28;20240;-66
2021/11/28 12:15:50;;;;;;;20.90;13.50;;;17.80;60.00;;;;;;5028460;28;20518;-67
2021/11/28 12:18:33;;;;;;;28.60;12.95;;;17.80;59.80;;;;;;5028737;28;20034;-67
2021/11/28 12:21:03;;;;;;;24.08;11.48;;;17.70;59.50;;;;;;5028437;28;20072;-67
2021/11/28 12:23:54;;;;;;;27.65;12.70;;;17.70;59.40;;;;;;5028532;28;20061;-67
2021/11/28 12:26:30;;;;;;;19.98;11.77;;;17.70;59.40;;;;;;5028288;28;20075;-67
2021/11/28 12:29:11;;;;;;;19.70;10.85;;;17.70;59.00;;;;;;5027473;28;20160;-67
2021/11/28 12:31:38;;;;;;;23.45;12.23;;;17.70;59.00;;;;;;5028394;28;20380;-67
2021/11/28 12:34:08;;;;;;;22.25;11.00;;;17.70;59.00;;;;;;5030038;28;20660;-66
2021/11/28 12:36:38;;;;;;;19.52;9.20;;;17.60;58.80;;;;;;5010981;28;20037;-69
2021/11/28 12:39:10;;;;;;;17.80;9.40;;;17.60;58.70;;;;;;5021444;28;20064;-67
2021/11/28 12:44:19;;;;;;;46.08;19.77;;;17.60;58.90;;;;;;5029039;28;20040;-68
2021/11/28 12:46:55;;;;;;;50.55;21.48;;;17.60;59.50;;;;;;5029033;28;20025;-69
2021/11/28 12:49:48;;;;;;;41.30;19.17;;;17.60;59.80;;;;;;5028799;28;20060;-68
2021/11/28 12:52:17;;;;;;;37.67;17.15;;;17.60;59.60;;;;;;5022385;28;20120;-68